»·PEaware :: N558GC KDAL-KAUS

N558GC :: KDAL-KAUS

FLIGHT INFORMATION

Flight Status: Arrived
Operator: Privately registered:
United States
More flights under this callsign
Pilot: Drew L. (13237)
Aircraft: BOEING 757-200
(B752)
More flights by this aircraft type
Origin: KDAL Dallas Love
United States
Destination: KAUS Austin Bergstrom Intl
United States
More flights between these airports :: More routes between these airports
Route: CURLO5 WINDU SEWZY4
File this flight plan on PilotEdge
Remarks: RMK / SIMBRIEF
Altitude:
(Current/Filed)
22,000ft
Speed:
(Current/Filed)
465kts
Departed: 06-Jul-20 10:35 PM
Arrived: 06-Jul-20 11:07 PM
Distance/Time
Traveled:
165nm/0:32
Distance/Time
To Go:
Arrived

Flight Plot

Page will automatically refresh every two minutes.

Flight plan parsing failed; only flown route is shown


Map Options




Map Legend


Flown Route
Filed Route
Departure Airport
Arrival Airport
Navaid (VOR, NDB)
Fix

Horizontal Profiles

Position Reports

Time Latitude Longitude Heading Altitude Ground
Speed
06-Jul-20 22:25 32.855635 -96.851334 134 483ft 0kts
06-Jul-20 22:26 32.855635 -96.851334 134 483ft 0kts
06-Jul-20 22:27 32.855635 -96.851334 134 483ft 0kts
06-Jul-20 22:28 32.855635 -96.851334 134 483ft 0kts
06-Jul-20 22:29 32.855635 -96.851334 134 483ft 0kts
06-Jul-20 22:30 32.855635 -96.851334 134 483ft 0kts
06-Jul-20 22:31 32.855622 -96.851318 134 483ft 1kts
06-Jul-20 22:32 32.854614 -96.851752 312 485ft 9kts
06-Jul-20 22:33 32.857752 -96.855582 282 474ft 13kts
06-Jul-20 22:34 32.853164 -96.852031 136 487ft 101kts
06-Jul-20 22:35 32.821330 -96.812217 130 2355ft 209kts
06-Jul-20 22:36 32.774194 -96.755782 135 5494ft 256kts
06-Jul-20 22:37 32.715275 -96.701337 175 8888ft 280kts
06-Jul-20 22:38 32.638145 -96.733514 205 11063ft 344kts
06-Jul-20 22:39 32.560416 -96.799304 219 14216ft 374kts
06-Jul-20 22:40 32.459802 -96.832981 187 17630ft 400kts
06-Jul-20 22:41 32.351653 -96.857638 195 21373ft 395kts
06-Jul-20 22:42 32.241769 -96.889620 195 22007ft 427kts
06-Jul-20 22:43 32.126115 -96.921349 194 21994ft 428kts
06-Jul-20 22:44 32.010115 -96.952142 194 21991ft 428kts
06-Jul-20 22:45 31.894130 -96.983370 194 21990ft 428kts
06-Jul-20 22:46 31.779840 -97.014638 194 21990ft 428kts
06-Jul-20 22:47 31.663462 -97.046117 194 21990ft 428kts
06-Jul-20 22:48 31.546934 -97.076911 194 21990ft 428kts
06-Jul-20 22:49 31.433497 -97.118749 199 21995ft 427kts
06-Jul-20 22:50 31.320579 -97.163345 200 22005ft 427kts
06-Jul-20 22:51 31.208056 -97.207842 200 22008ft 427kts
06-Jul-20 22:52 31.095012 -97.251074 199 21236ft 421kts
06-Jul-20 22:53 30.984947 -97.293334 199 19432ft 415kts
06-Jul-20 22:54 30.879649 -97.334302 199 17446ft 398kts
06-Jul-20 22:55 30.779231 -97.380640 207 15231ft 379kts
06-Jul-20 22:56 30.686655 -97.433948 207 13017ft 361kts
06-Jul-20 22:57 30.601940 -97.482217 207 10795ft 322kts
06-Jul-20 22:58 30.524404 -97.526272 207 8579ft 302kts
06-Jul-20 22:59 30.454248 -97.566038 207 7629ft 255kts
06-Jul-20 23:00 30.402555 -97.616868 226 6305ft 235kts
06-Jul-20 23:01 30.352798 -97.658304 209 4681ft 203kts
06-Jul-20 23:02 30.307427 -97.681021 176 2944ft 166kts
06-Jul-20 23:03 30.265972 -97.680763 176 1518ft 129kts
06-Jul-20 23:04 30.229954 -97.679744 178 951ft 132kts
06-Jul-20 23:05 30.199716 -97.678937 177 510ft 47kts
06-Jul-20 23:06 30.194005 -97.674209 88 500ft 23kts
06-Jul-20 23:07 30.194267 -97.670273 16 498ft 6kts
06-Jul-20 23:08 30.195645 -97.670505 269 498ft 2kts
06-Jul-20 23:09 30.195645 -97.670540 270 498ft 0kts
06-Jul-20 23:10 30.195645 -97.670540 270 498ft 0kts
06-Jul-20 23:11 30.195645 -97.670540 270 498ft 0kts
06-Jul-20 23:12 30.195645 -97.670540 270 498ft 0kts
06-Jul-20 23:13 30.195645 -97.670540 270 498ft 0kts
06-Jul-20 23:14 30.195645 -97.670540 270 498ft 0kts
06-Jul-20 23:15 30.195645 -97.670540 270 498ft 0kts
06-Jul-20 23:16 30.195645 -97.670540 270 498ft 0kts
06-Jul-20 23:17 30.195645 -97.670540 270 498ft 0kts
06-Jul-20 23:18 30.195645 -97.670540 270 498ft 0kts

Navigation Log

Ident Type
Flight plan parsing failed, navigation log unavailable